sensor_id;sensor_type;location;lat;lon;timestamp;P1;durP1;ratioP1;P2;durP2;ratioP2
72261;SDS011;60173;52.112;8.648;2023-11-18T00:01:04;84.18;;;34.05;;
72261;SDS011;60173;52.112;8.648;2023-11-18T00:03:30;93.72;;;38.22;;
72261;SDS011;60173;52.112;8.648;2023-11-18T00:05:57;89.40;;;36.72;;
72261;SDS011;60173;52.112;8.648;2023-11-18T00:08:23;115.03;;;40.22;;
72261;SDS011;60173;52.112;8.648;2023-11-18T00:10:50;93.00;;;37.47;;
72261;SDS011;60173;52.112;8.648;2023-11-18T00:13:16;96.35;;;34.50;;
72261;SDS011;60173;52.112;8.648;2023-11-18T00:15:43;96.93;;;37.88;;
72261;SDS011;60173;52.112;8.648;2023-11-18T00:18:09;101.05;;;37.00;;
72261;SDS011;60173;52.112;8.648;2023-11-18T00:20:36;89.10;;;37.50;;
72261;SDS011;60173;52.112;8.648;2023-11-18T00:23:02;104.70;;;38.67;;
72261;SDS011;60173;52.112;8.648;2023-11-18T00:25:28;104.25;;;38.05;;
72261;SDS011;60173;52.112;8.648;2023-11-18T00:27:55;119.85;;;41.72;;
72261;SDS011;60173;52.112;8.648;2023-11-18T00:30:22;106.28;;;38.72;;
72261;SDS011;60173;52.112;8.648;2023-11-18T00:32:48;92.30;;;36.78;;
72261;SDS011;60173;52.112;8.648;2023-11-18T00:35:15;102.70;;;39.47;;
72261;SDS011;60173;52.112;8.648;2023-11-18T00:37:41;107.05;;;39.58;;
72261;SDS011;60173;52.112;8.648;2023-11-18T00:40:08;119.13;;;41.95;;
72261;SDS011;60173;52.112;8.648;2023-11-18T00:42:34;105.13;;;38.38;;
72261;SDS011;60173;52.112;8.648;2023-11-18T00:45:01;111.43;;;40.70;;
72261;SDS011;60173;52.112;8.648;2023-11-18T00:47:27;109.75;;;41.30;;
72261;SDS011;60173;52.112;8.648;2023-11-18T00:49:54;94.03;;;37.17;;
72261;SDS011;60173;52.112;8.648;2023-11-18T00:52:20;100.85;;;39.33;;
72261;SDS011;60173;52.112;8.648;2023-11-18T00:54:47;111.35;;;40.72;;
72261;SDS011;60173;52.112;8.648;2023-11-18T00:57:13;114.35;;;39.92;;
72261;SDS011;60173;52.112;8.648;2023-11-18T00:59:43;106.60;;;40.50;;
72261;SDS011;60173;52.112;8.648;2023-11-18T01:02:10;101.70;;;38.45;;
72261;SDS011;60173;52.112;8.648;2023-11-18T01:04:37;105.47;;;38.20;;
72261;SDS011;60173;52.112;8.648;2023-11-18T01:07:03;111.68;;;40.42;;
72261;SDS011;60173;52.112;8.648;2023-11-18T01:09:30;114.38;;;41.75;;
72261;SDS011;60173;52.112;8.648;2023-11-18T01:11:56;115.07;;;40.78;;
72261;SDS011;60173;52.112;8.648;2023-11-18T01:14:34;121.95;;;42.40;;
72261;SDS011;60173;52.112;8.648;2023-11-18T01:17:01;136.32;;;44.15;;
72261;SDS011;60173;52.112;8.648;2023-11-18T01:19:27;142.45;;;46.35;;
72261;SDS011;60173;52.112;8.648;2023-11-18T01:21:54;115.00;;;41.45;;
72261;SDS011;60173;52.112;8.648;2023-11-18T01:24:20;146.50;;;45.88;;
72261;SDS011;60173;52.112;8.648;2023-11-18T01:26:47;140.13;;;45.55;;
72261;SDS011;60173;52.112;8.648;2023-11-18T01:29:13;140.52;;;44.78;;
72261;SDS011;60173;52.112;8.648;2023-11-18T01:31:40;125.00;;;43.30;;
72261;SDS011;60173;52.112;8.648;2023-11-18T01:34:17;134.75;;;43.47;;
72261;SDS011;60173;52.112;8.648;2023-11-18T01:36:44;122.82;;;41.25;;
72261;SDS011;60173;52.112;8.648;2023-11-18T01:39:11;124.97;;;42.85;;
72261;SDS011;60173;52.112;8.648;2023-11-18T01:41:37;125.65;;;42.75;;
72261;SDS011;60173;52.112;8.648;2023-11-18T01:44:04;118.75;;;41.63;;
72261;SDS011;60173;52.112;8.648;2023-11-18T01:46:30;128.85;;;45.20;;
72261;SDS011;60173;52.112;8.648;2023-11-18T01:48:57;120.72;;;42.35;;
72261;SDS011;60173;52.112;8.648;2023-11-18T01:51:24;131.73;;;42.75;;
72261;SDS011;60173;52.112;8.648;2023-11-18T01:53:50;132.07;;;44.85;;
72261;SDS011;60173;52.112;8.648;2023-11-18T01:56:17;117.47;;;41.22;;
72261;SDS011;60173;52.112;8.648;2023-11-18T01:58:44;125.78;;;44.13;;
72261;SDS011;60173;52.112;8.648;2023-11-18T02:01:11;116.60;;;41.42;;
72261;SDS011;60173;52.112;8.648;2023-11-18T02:03:37;110.80;;;40.08;;
72261;SDS011;60173;52.112;8.648;2023-11-18T02:06:04;125.00;;;42.08;;
72261;SDS011;60173;52.112;8.648;2023-11-18T02:08:33;113.45;;;41.78;;
72261;SDS011;60173;52.112;8.648;2023-11-18T02:11:01;128.27;;;42.97;;
72261;SDS011;60173;52.112;8.648;2023-11-18T02:13:36;121.25;;;43.47;;
72261;SDS011;60173;52.112;8.648;2023-11-18T02:16:07;128.93;;;45.72;;
72261;SDS011;60173;52.112;8.648;2023-11-18T02:18:35;130.77;;;47.90;;
72261;SDS011;60173;52.112;8.648;2023-11-18T02:21:04;117.68;;;42.08;;
72261;SDS011;60173;52.112;8.648;2023-11-18T02:23:33;135.10;;;45.00;;
72261;SDS011;60173;52.112;8.648;2023-11-18T02:25:59;131.38;;;43.95;;
72261;SDS011;60173;52.112;8.648;2023-11-18T02:28:26;122.55;;;43.17;;
72261;SDS011;60173;52.112;8.648;2023-11-18T02:30:56;143.93;;;48.42;;
72261;SDS011;60173;52.112;8.648;2023-11-18T02:33:34;129.15;;;45.20;;
72261;SDS011;60173;52.112;8.648;2023-11-18T02:36:05;153.38;;;48.95;;
72261;SDS011;60173;52.112;8.648;2023-11-18T02:38:38;149.27;;;47.15;;
72261;SDS011;60173;52.112;8.648;2023-11-18T02:41:10;143.10;;;50.08;;
72261;SDS011;60173;52.112;8.648;2023-11-18T02:43:39;170.23;;;51.03;;
72261;SDS011;60173;52.112;8.648;2023-11-18T02:46:07;162.43;;;50.45;;
72261;SDS011;60173;52.112;8.648;2023-11-18T02:48:35;163.50;;;51.67;;
72261;SDS011;60173;52.112;8.648;2023-11-18T02:51:04;156.48;;;49.97;;
72261;SDS011;60173;52.112;8.648;2023-11-18T02:53:31;166.82;;;52.90;;
72261;SDS011;60173;52.112;8.648;2023-11-18T02:55:57;159.48;;;51.05;;
72261;SDS011;60173;52.112;8.648;2023-11-18T02:58:23;166.50;;;52.33;;
72261;SDS011;60173;52.112;8.648;2023-11-18T03:00:50;156.18;;;50.90;;
72261;SDS011;60173;52.112;8.648;2023-11-18T03:03:16;178.25;;;54.35;;
72261;SDS011;60173;52.112;8.648;2023-11-18T03:05:43;159.38;;;53.97;;
72261;SDS011;60173;52.112;8.648;2023-11-18T03:08:09;149.40;;;49.45;;
72261;SDS011;60173;52.112;8.648;2023-11-18T03:10:36;140.88;;;47.92;;
72261;SDS011;60173;52.112;8.648;2023-11-18T03:13:02;144.60;;;47.47;;
72261;SDS011;60173;52.112;8.648;2023-11-18T03:15:29;153.30;;;50.08;;
72261;SDS011;60173;52.112;8.648;2023-11-18T03:17:55;144.70;;;49.03;;
72261;SDS011;60173;52.112;8.648;2023-11-18T03:20:22;137.73;;;45.72;;
72261;SDS011;60173;52.112;8.648;2023-11-18T03:22:50;142.85;;;46.58;;
72261;SDS011;60173;52.112;8.648;2023-11-18T03:25:17;137.38;;;46.42;;
72261;SDS011;60173;52.112;8.648;2023-11-18T03:27:45;139.93;;;45.83;;
72261;SDS011;60173;52.112;8.648;2023-11-18T03:30:11;133.50;;;45.33;;
72261;SDS011;60173;52.112;8.648;2023-11-18T03:32:38;136.45;;;44.70;;
72261;SDS011;60173;52.112;8.648;2023-11-18T03:35:06;132.93;;;44.10;;
72261;SDS011;60173;52.112;8.648;2023-11-18T03:37:34;137.07;;;43.72;;
72261;SDS011;60173;52.112;8.648;2023-11-18T03:40:11;133.27;;;43.35;;
72261;SDS011;60173;52.112;8.648;2023-11-18T03:42:39;129.15;;;43.83;;
72261;SDS011;60173;52.112;8.648;2023-11-18T03:45:07;139.40;;;44.03;;
72261;SDS011;60173;52.112;8.648;2023-11-18T03:47:34;131.27;;;43.90;;
72261;SDS011;60173;52.112;8.648;2023-11-18T03:50:01;142.48;;;45.67;;
72261;SDS011;60173;52.112;8.648;2023-11-18T03:52:28;135.63;;;44.35;;
72261;SDS011;60173;52.112;8.648;2023-11-18T03:54:54;141.32;;;44.00;;
72261;SDS011;60173;52.112;8.648;2023-11-18T03:57:21;137.30;;;45.58;;
72261;SDS011;60173;52.112;8.648;2023-11-18T03:59:47;136.02;;;43.20;;
72261;SDS011;60173;52.112;8.648;2023-11-18T04:02:14;119.00;;;41.85;;
72261;SDS011;60173;52.112;8.648;2023-11-18T04:04:41;124.97;;;42.60;;
72261;SDS011;60173;52.112;8.648;2023-11-18T04:07:07;124.70;;;42.05;;
72261;SDS011;60173;52.112;8.648;2023-11-18T04:09:33;118.95;;;40.75;;
72261;SDS011;60173;52.112;8.648;2023-11-18T04:12:00;126.25;;;42.15;;
72261;SDS011;60173;52.112;8.648;2023-11-18T04:14:26;120.90;;;42.40;;
72261;SDS011;60173;52.112;8.648;2023-11-18T04:16:53;118.15;;;41.58;;
72261;SDS011;60173;52.112;8.648;2023-11-18T04:19:19;110.57;;;39.47;;
72261;SDS011;60173;52.112;8.648;2023-11-18T04:21:49;88.43;;;36.50;;
72261;SDS011;60173;52.112;8.648;2023-11-18T04:24:15;120.82;;;38.78;;
72261;SDS011;60173;52.112;8.648;2023-11-18T04:26:42;81.82;;;34.95;;
72261;SDS011;60173;52.112;8.648;2023-11-18T04:29:08;78.35;;;35.22;;
72261;SDS011;60173;52.112;8.648;2023-11-18T04:31:35;108.03;;;37.17;;
72261;SDS011;60173;52.112;8.648;2023-11-18T04:34:01;122.43;;;40.80;;
72261;SDS011;60173;52.112;8.648;2023-11-18T04:36:28;144.38;;;39.97;;
72261;SDS011;60173;52.112;8.648;2023-11-18T04:38:54;84.50;;;38.83;;
72261;SDS011;60173;52.112;8.648;2023-11-18T04:41:21;92.38;;;37.90;;
72261;SDS011;60173;52.112;8.648;2023-11-18T04:43:47;103.25;;;40.33;;
72261;SDS011;60173;52.112;8.648;2023-11-18T04:46:14;105.13;;;38.03;;
72261;SDS011;60173;52.112;8.648;2023-11-18T04:48:40;98.25;;;39.47;;
72261;SDS011;60173;52.112;8.648;2023-11-18T04:51:08;185.00;;;44.83;;
72261;SDS011;60173;52.112;8.648;2023-11-18T04:53:34;139.70;;;46.63;;
72261;SDS011;60173;52.112;8.648;2023-11-18T04:56:01;110.82;;;43.50;;
72261;SDS011;60173;52.112;8.648;2023-11-18T04:58:27;110.43;;;43.20;;
72261;SDS011;60173;52.112;8.648;2023-11-18T05:00:54;112.93;;;42.80;;
72261;SDS011;60173;52.112;8.648;2023-11-18T05:03:20;146.07;;;45.60;;
72261;SDS011;60173;52.112;8.648;2023-11-18T05:05:47;118.90;;;45.15;;
72261;SDS011;60173;52.112;8.648;2023-11-18T05:08:19;107.63;;;43.00;;
72261;SDS011;60173;52.112;8.648;2023-11-18T05:10:47;114.63;;;43.00;;
72261;SDS011;60173;52.112;8.648;2023-11-18T05:13:15;144.63;;;45.13;;
72261;SDS011;60173;52.112;8.648;2023-11-18T05:15:43;211.65;;;47.90;;
72261;SDS011;60173;52.112;8.648;2023-11-18T05:18:10;119.47;;;41.85;;
72261;SDS011;60173;52.112;8.648;2023-11-18T05:20:37;95.65;;;40.05;;
72261;SDS011;60173;52.112;8.648;2023-11-18T05:23:03;105.35;;;38.63;;
72261;SDS011;60173;52.112;8.648;2023-11-18T05:25:30;146.55;;;42.78;;
72261;SDS011;60173;52.112;8.648;2023-11-18T05:27:56;164.57;;;45.33;;
72261;SDS011;60173;52.112;8.648;2023-11-18T05:30:23;126.45;;;42.80;;
72261;SDS011;60173;52.112;8.648;2023-11-18T05:32:49;103.85;;;42.55;;
72261;SDS011;60173;52.112;8.648;2023-11-18T05:35:16;199.77;;;43.92;;
72261;SDS011;60173;52.112;8.648;2023-11-18T05:37:42;138.52;;;43.28;;
72261;SDS011;60173;52.112;8.648;2023-11-18T05:40:09;93.65;;;40.45;;
72261;SDS011;60173;52.112;8.648;2023-11-18T05:42:36;116.53;;;41.85;;
72261;SDS011;60173;52.112;8.648;2023-11-18T05:45:06;144.75;;;44.25;;
72261;SDS011;60173;52.112;8.648;2023-11-18T05:47:35;117.18;;;44.10;;
72261;SDS011;60173;52.112;8.648;2023-11-18T05:50:02;119.68;;;43.55;;
72261;SDS011;60173;52.112;8.648;2023-11-18T05:52:28;108.47;;;39.92;;
72261;SDS011;60173;52.112;8.648;2023-11-18T05:54:55;92.35;;;38.90;;
72261;SDS011;60173;52.112;8.648;2023-11-18T05:57:21;109.13;;;39.53;;
72261;SDS011;60173;52.112;8.648;2023-11-18T05:59:48;88.95;;;38.08;;
72261;SDS011;60173;52.112;8.648;2023-11-18T06:02:14;128.93;;;42.00;;
72261;SDS011;60173;52.112;8.648;2023-11-18T06:04:41;126.43;;;42.13;;
72261;SDS011;60173;52.112;8.648;2023-11-18T06:07:07;133.38;;;41.47;;
72261;SDS011;60173;52.112;8.648;2023-11-18T06:09:34;161.88;;;41.90;;
72261;SDS011;60173;52.112;8.648;2023-11-18T06:12:00;104.82;;;40.22;;
72261;SDS011;60173;52.112;8.648;2023-11-18T06:14:27;95.38;;;39.30;;
72261;SDS011;60173;52.112;8.648;2023-11-18T06:16:53;118.22;;;42.40;;
72261;SDS011;60173;52.112;8.648;2023-11-18T06:19:20;136.90;;;45.05;;
72261;SDS011;60173;52.112;8.648;2023-11-18T06:21:47;126.90;;;44.72;;
72261;SDS011;60173;52.112;8.648;2023-11-18T06:24:13;131.82;;;44.78;;
72261;SDS011;60173;52.112;8.648;2023-11-18T06:26:39;112.63;;;39.95;;
72261;SDS011;60173;52.112;8.648;2023-11-18T06:29:06;107.40;;;41.22;;
72261;SDS011;60173;52.112;8.648;2023-11-18T06:31:32;95.03;;;39.83;;
72261;SDS011;60173;52.112;8.648;2023-11-18T06:33:59;93.13;;;37.15;;
72261;SDS011;60173;52.112;8.648;2023-11-18T06:36:25;94.32;;;38.80;;
72261;SDS011;60173;52.112;8.648;2023-11-18T06:38:52;105.40;;;39.10;;
72261;SDS011;60173;52.112;8.648;2023-11-18T06:41:20;101.13;;;39.70;;
72261;SDS011;60173;52.112;8.648;2023-11-18T06:43:47;107.10;;;39.35;;
72261;SDS011;60173;52.112;8.648;2023-11-18T06:46:14;89.93;;;36.08;;
72261;SDS011;60173;52.112;8.648;2023-11-18T06:48:41;117.53;;;40.13;;
72261;SDS011;60173;52.112;8.648;2023-11-18T06:51:07;101.28;;;39.08;;
72261;SDS011;60173;52.112;8.648;2023-11-18T06:53:34;114.88;;;41.90;;
72261;SDS011;60173;52.112;8.648;2023-11-18T06:56:00;115.63;;;42.88;;
72261;SDS011;60173;52.112;8.648;2023-11-18T06:58:27;104.07;;;40.50;;
72261;SDS011;60173;52.112;8.648;2023-11-18T07:00:53;105.82;;;39.28;;
72261;SDS011;60173;52.112;8.648;2023-11-18T07:03:20;111.88;;;43.45;;
72261;SDS011;60173;52.112;8.648;2023-11-18T07:05:46;99.22;;;39.88;;
72261;SDS011;60173;52.112;8.648;2023-11-18T07:08:13;90.75;;;37.10;;
72261;SDS011;60173;52.112;8.648;2023-11-18T07:10:40;103.65;;;41.63;;
72261;SDS011;60173;52.112;8.648;2023-11-18T07:13:07;99.05;;;38.28;;
72261;SDS011;60173;52.112;8.648;2023-11-18T07:15:33;83.88;;;36.38;;
72261;SDS011;60173;52.112;8.648;2023-11-18T07:18:00;89.05;;;36.47;;
72261;SDS011;60173;52.112;8.648;2023-11-18T07:20:26;85.35;;;38.03;;
72261;SDS011;60173;52.112;8.648;2023-11-18T07:22:53;81.55;;;33.63;;
72261;SDS011;60173;52.112;8.648;2023-11-18T07:25:19;86.60;;;36.33;;
72261;SDS011;60173;52.112;8.648;2023-11-18T07:27:46;90.32;;;36.13;;
72261;SDS011;60173;52.112;8.648;2023-11-18T07:30:12;89.55;;;37.38;;
72261;SDS011;60173;52.112;8.648;2023-11-18T07:32:39;85.13;;;36.45;;
72261;SDS011;60173;52.112;8.648;2023-11-18T07:35:06;84.90;;;35.47;;
72261;SDS011;60173;52.112;8.648;2023-11-18T07:37:32;80.63;;;34.30;;
72261;SDS011;60173;52.112;8.648;2023-11-18T07:39:59;81.90;;;33.72;;
72261;SDS011;60173;52.112;8.648;2023-11-18T07:42:25;73.90;;;31.00;;
72261;SDS011;60173;52.112;8.648;2023-11-18T07:44:52;69.88;;;31.05;;
72261;SDS011;60173;52.112;8.648;2023-11-18T07:47:19;68.13;;;29.55;;
72261;SDS011;60173;52.112;8.648;2023-11-18T07:49:45;64.53;;;28.05;;
72261;SDS011;60173;52.112;8.648;2023-11-18T07:52:12;65.97;;;29.42;;
72261;SDS011;60173;52.112;8.648;2023-11-18T07:54:38;65.80;;;28.42;;
72261;SDS011;60173;52.112;8.648;2023-11-18T07:57:05;70.30;;;29.80;;
72261;SDS011;60173;52.112;8.648;2023-11-18T07:59:31;68.25;;;29.42;;
72261;SDS011;60173;52.112;8.648;2023-11-18T08:01:58;65.10;;;30.40;;
72261;SDS011;60173;52.112;8.648;2023-11-18T08:04:24;70.85;;;29.33;;
72261;SDS011;60173;52.112;8.648;2023-11-18T08:06:51;64.75;;;30.52;;
72261;SDS011;60173;52.112;8.648;2023-11-18T08:09:17;63.75;;;28.50;;
72261;SDS011;60173;52.112;8.648;2023-11-18T08:11:43;65.35;;;29.35;;
72261;SDS011;60173;52.112;8.648;2023-11-18T08:14:11;66.15;;;27.83;;
72261;SDS011;60173;52.112;8.648;2023-11-18T08:16:37;60.72;;;28.63;;
72261;SDS011;60173;52.112;8.648;2023-11-18T08:19:04;57.67;;;27.40;;
72261;SDS011;60173;52.112;8.648;2023-11-18T08:21:31;57.20;;;26.73;;
72261;SDS011;60173;52.112;8.648;2023-11-18T08:23:57;49.75;;;22.88;;
72261;SDS011;60173;52.112;8.648;2023-11-18T08:26:23;53.10;;;23.95;;
72261;SDS011;60173;52.112;8.648;2023-11-18T08:28:50;41.10;;;21.67;;
72261;SDS011;60173;52.112;8.648;2023-11-18T08:31:17;51.60;;;26.02;;
72261;SDS011;60173;52.112;8.648;2023-11-18T08:33:43;44.83;;;23.02;;
72261;SDS011;60173;52.112;8.648;2023-11-18T08:36:10;45.85;;;22.98;;
72261;SDS011;60173;52.112;8.648;2023-11-18T08:38:36;40.10;;;20.95;;
72261;SDS011;60173;52.112;8.648;2023-11-18T08:41:03;40.05;;;21.25;;
72261;SDS011;60173;52.112;8.648;2023-11-18T08:43:30;41.63;;;20.90;;
72261;SDS011;60173;52.112;8.648;2023-11-18T08:45:56;39.58;;;20.65;;
72261;SDS011;60173;52.112;8.648;2023-11-18T08:48:23;41.35;;;20.73;;
72261;SDS011;60173;52.112;8.648;2023-11-18T08:50:49;43.28;;;22.52;;
72261;SDS011;60173;52.112;8.648;2023-11-18T08:53:16;37.15;;;21.23;;
72261;SDS011;60173;52.112;8.648;2023-11-18T08:55:42;33.75;;;19.48;;
72261;SDS011;60173;52.112;8.648;2023-11-18T08:58:12;37.78;;;18.63;;
72261;SDS011;60173;52.112;8.648;2023-11-18T09:00:39;37.40;;;18.73;;
72261;SDS011;60173;52.112;8.648;2023-11-18T09:03:05;37.47;;;18.65;;
72261;SDS011;60173;52.112;8.648;2023-11-18T09:05:32;33.60;;;19.38;;
72261;SDS011;60173;52.112;8.648;2023-11-18T09:07:59;36.67;;;19.20;;
72261;SDS011;60173;52.112;8.648;2023-11-18T09:10:26;33.58;;;17.48;;
72261;SDS011;60173;52.112;8.648;2023-11-18T09:12:53;32.40;;;19.05;;
72261;SDS011;60173;52.112;8.648;2023-11-18T09:15:22;33.90;;;17.40;;
72261;SDS011;60173;52.112;8.648;2023-11-18T09:17:49;28.38;;;15.52;;
72261;SDS011;60173;52.112;8.648;2023-11-18T09:20:15;30.38;;;15.20;;
72261;SDS011;60173;52.112;8.648;2023-11-18T09:22:42;27.63;;;15.95;;
72261;SDS011;60173;52.112;8.648;2023-11-18T09:25:09;30.92;;;15.40;;
72261;SDS011;60173;52.112;8.648;2023-11-18T09:27:36;29.33;;;15.55;;
72261;SDS011;60173;52.112;8.648;2023-11-18T09:30:02;32.25;;;15.13;;
72261;SDS011;60173;52.112;8.648;2023-11-18T09:32:29;26.40;;;14.48;;
72261;SDS011;60173;52.112;8.648;2023-11-18T09:34:55;25.92;;;14.23;;
72261;SDS011;60173;52.112;8.648;2023-11-18T09:37:22;24.20;;;13.70;;
72261;SDS011;60173;52.112;8.648;2023-11-18T09:39:48;21.63;;;13.10;;
72261;SDS011;60173;52.112;8.648;2023-11-18T09:42:15;25.55;;;13.68;;
72261;SDS011;60173;52.112;8.648;2023-11-18T09:44:41;22.85;;;13.38;;
72261;SDS011;60173;52.112;8.648;2023-11-18T09:47:08;26.73;;;13.50;;
72261;SDS011;60173;52.112;8.648;2023-11-18T09:49:37;25.00;;;14.63;;
72261;SDS011;60173;52.112;8.648;2023-11-18T09:52:11;22.17;;;13.63;;
72261;SDS011;60173;52.112;8.648;2023-11-18T09:54:50;24.13;;;13.35;;
72261;SDS011;60173;52.112;8.648;2023-11-18T10:02:41;24.08;;;13.70;;
72261;SDS011;60173;52.112;8.648;2023-11-18T10:05:09;22.98;;;14.05;;
72261;SDS011;60173;52.112;8.648;2023-11-18T10:07:36;23.80;;;15.05;;
72261;SDS011;60173;52.112;8.648;2023-11-18T10:10:03;23.30;;;13.85;;
72261;SDS011;60173;52.112;8.648;2023-11-18T10:12:30;25.80;;;14.70;;
72261;SDS011;60173;52.112;8.648;2023-11-18T10:14:57;25.75;;;14.73;;
72261;SDS011;60173;52.112;8.648;2023-11-18T10:17:23;23.52;;;14.05;;
72261;SDS011;60173;52.112;8.648;2023-11-18T10:22:28;24.85;;;14.27;;
72261;SDS011;60173;52.112;8.648;2023-11-18T10:24:56;23.35;;;12.95;;
72261;SDS011;60173;52.112;8.648;2023-11-18T10:27:29;24.05;;;14.20;;
72261;SDS011;60173;52.112;8.648;2023-11-18T10:30:03;21.38;;;13.68;;
72261;SDS011;60173;52.112;8.648;2023-11-18T10:32:31;26.27;;;12.88;;
72261;SDS011;60173;52.112;8.648;2023-11-18T10:34:58;23.52;;;14.15;;
72261;SDS011;60173;52.112;8.648;2023-11-18T10:37:25;23.23;;;13.70;;
72261;SDS011;60173;52.112;8.648;2023-11-18T10:39:52;24.52;;;13.73;;
72261;SDS011;60173;52.112;8.648;2023-11-18T10:42:18;21.48;;;13.13;;
72261;SDS011;60173;52.112;8.648;2023-11-18T10:44:55;19.48;;;12.40;;
72261;SDS011;60173;52.112;8.648;2023-11-18T10:47:23;20.63;;;12.60;;
72261;SDS011;60173;52.112;8.648;2023-11-18T10:49:50;23.05;;;13.00;;
72261;SDS011;60173;52.112;8.648;2023-11-18T10:52:17;20.92;;;12.40;;
72261;SDS011;60173;52.112;8.648;2023-11-18T10:54:51;21.88;;;12.35;;
72261;SDS011;60173;52.112;8.648;2023-11-18T10:57:19;21.67;;;13.32;;
72261;SDS011;60173;52.112;8.648;2023-11-18T10:59:58;18.95;;;12.23;;
72261;SDS011;60173;52.112;8.648;2023-11-18T11:02:31;24.45;;;12.95;;
72261;SDS011;60173;52.112;8.648;2023-11-18T11:04:58;21.40;;;13.52;;
72261;SDS011;60173;52.112;8.648;2023-11-18T11:07:24;19.45;;;12.05;;
72261;SDS011;60173;52.112;8.648;2023-11-18T11:09:52;23.77;;;13.43;;
72261;SDS011;60173;52.112;8.648;2023-11-18T11:12:18;21.17;;;13.13;;
72261;SDS011;60173;52.112;8.648;2023-11-18T11:14:48;25.02;;;14.05;;
72261;SDS011;60173;52.112;8.648;2023-11-18T11:17:22;21.80;;;14.02;;
72261;SDS011;60173;52.112;8.648;2023-11-18T11:19:59;20.80;;;12.60;;
72261;SDS011;60173;52.112;8.648;2023-11-18T11:22:37;18.67;;;12.70;;
72261;SDS011;60173;52.112;8.648;2023-11-18T11:25:20;20.38;;;13.38;;
72261;SDS011;60173;52.112;8.648;2023-11-18T11:27:55;30.25;;;15.07;;
72261;SDS011;60173;52.112;8.648;2023-11-18T11:30:29;23.50;;;15.10;;
72261;SDS011;60173;52.112;8.648;2023-11-18T11:33:13;21.45;;;13.48;;
72261;SDS011;60173;52.112;8.648;2023-11-18T11:35:40;20.90;;;13.43;;
72261;SDS011;60173;52.112;8.648;2023-11-18T11:38:08;20.30;;;13.55;;
72261;SDS011;60173;52.112;8.648;2023-11-18T11:40:36;22.65;;;12.65;;
72261;SDS011;60173;52.112;8.648;2023-11-18T11:43:04;21.67;;;12.98;;
72261;SDS011;60173;52.112;8.648;2023-11-18T11:45:33;22.92;;;14.45;;
72261;SDS011;60173;52.112;8.648;2023-11-18T11:48:00;21.05;;;13.15;;
72261;SDS011;60173;52.112;8.648;2023-11-18T11:50:31;20.15;;;12.77;;
72261;SDS011;60173;52.112;8.648;2023-11-18T11:53:04;19.90;;;12.85;;
72261;SDS011;60173;52.112;8.648;2023-11-18T11:58:02;20.55;;;12.88;;
72261;SDS011;60173;52.112;8.648;2023-11-18T12:00:29;23.50;;;14.27;;
72261;SDS011;60173;52.112;8.648;2023-11-18T12:02:55;25.35;;;15.48;;
72261;SDS011;60173;52.112;8.648;2023-11-18T12:05:25;27.92;;;14.38;;
72261;SDS011;60173;52.112;8.648;2023-11-18T12:07:52;21.70;;;13.60;;
72261;SDS011;60173;52.112;8.648;2023-11-18T12:10:19;25.95;;;14.52;;
72261;SDS011;60173;52.112;8.648;2023-11-18T12:12:46;24.92;;;14.35;;
72261;SDS011;60173;52.112;8.648;2023-11-18T12:15:13;22.10;;;13.18;;
72261;SDS011;60173;52.112;8.648;2023-11-18T12:23:06;23.00;;;14.48;;
72261;SDS011;60173;52.112;8.648;2023-11-18T12:25:32;20.38;;;13.48;;
72261;SDS011;60173;52.112;8.648;2023-11-18T12:28:06;24.23;;;14.38;;
72261;SDS011;60173;52.112;8.648;2023-11-18T12:33:00;21.75;;;13.98;;
72261;SDS011;60173;52.112;8.648;2023-11-18T12:35:28;20.85;;;13.43;;
72261;SDS011;60173;52.112;8.648;2023-11-18T12:41:00;22.02;;;14.52;;
72261;SDS011;60173;52.112;8.648;2023-11-18T12:49:13;22.23;;;14.15;;
72261;SDS011;60173;52.112;8.648;2023-11-18T12:51:41;21.20;;;12.82;;
72261;SDS011;60173;52.112;8.648;2023-11-18T12:54:11;21.58;;;14.27;;
72261;SDS011;60173;52.112;8.648;2023-11-18T12:56:38;22.70;;;12.90;;
72261;SDS011;60173;52.112;8.648;2023-11-18T12:59:05;25.10;;;15.77;;
72261;SDS011;60173;52.112;8.648;2023-11-18T13:01:34;26.55;;;15.38;;
72261;SDS011;60173;52.112;8.648;2023-11-18T13:04:04;24.77;;;15.35;;
72261;SDS011;60173;52.112;8.648;2023-11-18T13:06:31;27.33;;;16.90;;
72261;SDS011;60173;52.112;8.648;2023-11-18T13:08:57;26.25;;;16.00;;
72261;SDS011;60173;52.112;8.648;2023-11-18T13:11:24;27.23;;;16.63;;
72261;SDS011;60173;52.112;8.648;2023-11-18T13:13:51;28.67;;;17.27;;
72261;SDS011;60173;52.112;8.648;2023-11-18T13:16:17;25.50;;;15.38;;
72261;SDS011;60173;52.112;8.648;2023-11-18T13:18:44;24.58;;;14.45;;
72261;SDS011;60173;52.112;8.648;2023-11-18T13:21:18;22.30;;;14.65;;
72261;SDS011;60173;52.112;8.648;2023-11-18T13:23:49;26.80;;;16.33;;
72261;SDS011;60173;52.112;8.648;2023-11-18T13:26:17;24.23;;;15.77;;
72261;SDS011;60173;52.112;8.648;2023-11-18T13:28:48;24.23;;;15.38;;
72261;SDS011;60173;52.112;8.648;2023-11-18T13:31:15;25.15;;;16.15;;
72261;SDS011;60173;52.112;8.648;2023-11-18T13:33:43;26.08;;;14.60;;
72261;SDS011;60173;52.112;8.648;2023-11-18T13:36:10;23.17;;;14.48;;
72261;SDS011;60173;52.112;8.648;2023-11-18T13:38:37;22.75;;;14.50;;
72261;SDS011;60173;52.112;8.648;2023-11-18T13:41:04;24.65;;;15.13;;
72261;SDS011;60173;52.112;8.648;2023-11-18T13:43:43;22.45;;;13.82;;
72261;SDS011;60173;52.112;8.648;2023-11-18T13:46:13;22.63;;;14.60;;
72261;SDS011;60173;52.112;8.648;2023-11-18T13:48:40;26.23;;;15.27;;
72261;SDS011;60173;52.112;8.648;2023-11-18T13:51:11;22.52;;;15.02;;
72261;SDS011;60173;52.112;8.648;2023-11-18T13:53:38;25.20;;;15.27;;
72261;SDS011;60173;52.112;8.648;2023-11-18T13:56:06;23.65;;;14.40;;
72261;SDS011;60173;52.112;8.648;2023-11-18T13:58:34;27.80;;;13.25;;
72261;SDS011;60173;52.112;8.648;2023-11-18T14:01:01;24.83;;;14.02;;
72261;SDS011;60173;52.112;8.648;2023-11-18T14:03:27;22.92;;;13.13;;
72261;SDS011;60173;52.112;8.648;2023-11-18T14:05:57;19.58;;;12.80;;
72261;SDS011;60173;52.112;8.648;2023-11-18T14:08:24;19.92;;;13.02;;
72261;SDS011;60173;52.112;8.648;2023-11-18T14:10:51;22.95;;;14.15;;
72261;SDS011;60173;52.112;8.648;2023-11-18T14:13:28;23.45;;;14.63;;
72261;SDS011;60173;52.112;8.648;2023-11-18T14:15:55;23.20;;;13.52;;
72261;SDS011;60173;52.112;8.648;2023-11-18T14:18:21;26.60;;;15.88;;
72261;SDS011;60173;52.112;8.648;2023-11-18T14:20:48;21.83;;;13.20;;
72261;SDS011;60173;52.112;8.648;2023-11-18T14:23:15;20.20;;;12.85;;
72261;SDS011;60173;52.112;8.648;2023-11-18T14:25:42;22.55;;;11.95;;
72261;SDS011;60173;52.112;8.648;2023-11-18T14:28:08;24.02;;;15.27;;
72261;SDS011;60173;52.112;8.648;2023-11-18T14:30:35;26.25;;;16.23;;
72261;SDS011;60173;52.112;8.648;2023-11-18T14:33:01;25.60;;;14.18;;
72261;SDS011;60173;52.112;8.648;2023-11-18T14:35:28;20.98;;;13.20;;
72261;SDS011;60173;52.112;8.648;2023-11-18T14:37:55;19.88;;;12.32;;
72261;SDS011;60173;52.112;8.648;2023-11-18T14:40:22;20.17;;;12.90;;
72261;SDS011;60173;52.112;8.648;2023-11-18T14:42:48;17.00;;;10.77;;
72261;SDS011;60173;52.112;8.648;2023-11-18T14:45:16;23.17;;;12.77;;